createdAt,value
2017-12-27T00:00:15.627Z,5.33
2017-12-27T00:02:09.208Z,5.41
2017-12-27T00:03:09.164Z,5.43
2017-12-27T00:05:02.160Z,5.46
2017-12-27T00:06:02.192Z,5.41
2017-12-27T00:07:55.290Z,5.44
2017-12-27T00:08:55.231Z,5.47
2017-12-27T00:10:48.224Z,5.36
2017-12-27T00:11:48.257Z,5.38
2017-12-27T00:13:41.346Z,5.36
2017-12-27T00:14:41.290Z,5.32
2017-12-27T00:16:34.289Z,5.29
2017-12-27T00:17:34.321Z,5.32
2017-12-27T00:19:27.361Z,5.35
2017-12-27T00:20:27.356Z,5.32
2017-12-27T00:22:20.390Z,5.30
2017-12-27T00:23:20.387Z,5.30
2017-12-27T00:25:13.439Z,5.28
2017-12-27T00:26:13.417Z,5.25
2017-12-27T00:28:06.483Z,5.26
2017-12-27T00:29:06.449Z,5.21
2017-12-27T00:30:59.450Z,5.14
2017-12-27T00:31:59.494Z,5.11
2017-12-27T00:33:52.484Z,5.17
2017-12-27T00:34:52.519Z,5.18
2017-12-27T00:36:45.516Z,5.21
2017-12-27T00:37:45.549Z,5.26
2017-12-27T00:39:38.546Z,5.33
2017-12-27T00:40:38.611Z,5.35
2017-12-27T00:42:31.612Z,5.39
2017-12-27T00:43:31.622Z,5.43
2017-12-27T00:45:24.686Z,5.44
2017-12-27T00:46:24.647Z,5.53
2017-12-27T00:48:17.630Z,5.56
2017-12-27T00:49:17.679Z,5.50
2017-12-27T00:51:10.747Z,5.64
2017-12-27T00:52:10.718Z,5.65
2017-12-27T00:54:03.704Z,5.68
2017-12-27T00:55:03.753Z,5.62
2017-12-27T00:56:56.751Z,5.65
2017-12-27T00:57:56.787Z,5.72
2017-12-27T00:59:49.792Z,5.73
2017-12-27T01:00:49.897Z,5.64
2017-12-27T01:02:43.367Z,5.69
2017-12-27T01:03:43.359Z,5.69
2017-12-27T01:05:36.452Z,5.69
2017-12-27T01:06:36.391Z,5.75
2017-12-27T01:08:29.427Z,5.71
2017-12-27T01:09:29.426Z,5.71
2017-12-27T01:11:22.429Z,5.73
2017-12-27T01:12:22.459Z,5.73
2017-12-27T01:14:15.494Z,5.76
2017-12-27T01:15:15.493Z,5.71
2017-12-27T01:17:08.491Z,5.61
2017-12-27T01:18:08.525Z,5.68
2017-12-27T01:20:01.561Z,5.65
2017-12-27T01:21:01.557Z,5.61
2017-12-27T01:22:54.533Z,5.51
2017-12-27T01:23:54.591Z,5.56
2017-12-27T01:25:47.585Z,5.47
2017-12-27T01:26:47.621Z,5.53
2017-12-27T01:28:40.603Z,5.50
2017-12-27T01:29:40.655Z,5.38
2017-12-27T01:31:33.696Z,5.41
2017-12-27T01:32:33.685Z,5.44
2017-12-27T01:34:26.736Z,5.46
2017-12-27T01:35:26.717Z,5.41
2017-12-27T01:37:19.792Z,5.39
2017-12-27T01:38:19.750Z,5.48
2017-12-27T01:40:12.746Z,5.44
2017-12-27T01:41:12.782Z,5.41
2017-12-27T01:43:05.764Z,5.44
2017-12-27T01:44:05.814Z,5.43
2017-12-27T01:45:58.881Z,5.48
2017-12-27T01:46:58.847Z,5.44
2017-12-27T01:48:51.823Z,5.39
2017-12-27T01:49:51.887Z,5.43
2017-12-27T01:51:44.939Z,5.51
2017-12-27T01:52:44.912Z,5.50
2017-12-27T01:54:37.892Z,5.64
2017-12-27T01:55:37.944Z,5.64
2017-12-27T01:57:30.944Z,5.62
2017-12-27T01:58:30.976Z,5.64
2017-12-27T02:00:23.972Z,5.64
2017-12-27T02:01:24.007Z,5.76
2017-12-27T02:03:17.017Z,5.65
2017-12-27T02:04:17.056Z,5.65
2017-12-27T02:06:10.081Z,5.71
2017-12-27T02:07:10.090Z,5.71
2017-12-27T02:09:03.070Z,5.79
2017-12-27T02:10:03.123Z,5.75
2017-12-27T02:11:56.187Z,5.80
2017-12-27T02:12:56.164Z,5.89
2017-12-27T02:14:49.178Z,5.79
2017-12-27T02:15:49.187Z,5.72
2017-12-27T02:17:42.187Z,5.93
2017-12-27T02:18:42.221Z,5.76
2017-12-27T02:20:35.306Z,5.80
2017-12-27T02:21:35.260Z,5.82
2017-12-27T02:23:28.241Z,5.79
2017-12-27T02:24:28.291Z,5.80
2017-12-27T02:26:21.372Z,5.82
2017-12-27T02:27:21.323Z,5.72
2017-12-27T02:29:14.307Z,5.76
2017-12-27T02:30:14.357Z,5.73
2017-12-27T02:32:07.468Z,5.68
2017-12-27T02:33:07.393Z,5.68
2017-12-27T02:35:00.472Z,5.71
2017-12-27T02:36:00.426Z,5.72
2017-12-27T02:37:53.458Z,5.73
2017-12-27T02:38:53.457Z,5.79
2017-12-27T02:40:46.456Z,5.75
2017-12-27T02:41:46.488Z,5.71
2017-12-27T02:43:39.470Z,5.76
2017-12-27T02:44:39.527Z,5.87
2017-12-27T02:46:32.527Z,5.87
2017-12-27T02:47:32.563Z,5.84
2017-12-27T02:49:25.599Z,5.90
2017-12-27T02:50:25.594Z,5.84
2017-12-27T02:52:18.592Z,5.97
2017-12-27T02:53:18.633Z,5.99
2017-12-27T02:55:11.705Z,6.07
2017-12-27T02:56:11.664Z,6.08
2017-12-27T02:58:04.730Z,6.07
2017-12-27T02:59:04.696Z,6.07
2017-12-27T03:00:57.703Z,6.11
2017-12-27T03:01:57.730Z,6.14
2017-12-27T03:03:50.703Z,6.20
2017-12-27T03:04:50.760Z,6.24
2017-12-27T03:06:43.762Z,6.28
2017-12-27T03:07:43.805Z,6.28
2017-12-27T03:09:36.782Z,6.26
2017-12-27T03:10:36.835Z,6.27
2017-12-27T03:12:29.832Z,6.26
2017-12-27T03:13:29.868Z,6.30
2017-12-27T03:15:22.852Z,6.20
2017-12-27T03:16:22.898Z,6.33
2017-12-27T03:18:15.908Z,6.36
2017-12-27T03:19:15.931Z,6.33
2017-12-27T03:21:08.995Z,6.31
2017-12-27T03:22:08.963Z,6.36
2017-12-27T03:24:01.940Z,6.41
2017-12-27T03:25:01.995Z,6.41
2017-12-27T03:26:54.992Z,6.36
2017-12-27T03:27:55.028Z,6.31
2017-12-27T03:29:48.011Z,6.33
2017-12-27T03:30:48.061Z,6.30
2017-12-27T03:32:41.095Z,6.31
2017-12-27T03:33:41.096Z,6.35
2017-12-27T03:35:34.104Z,6.28
2017-12-27T03:36:34.125Z,6.30
2017-12-27T03:38:27.185Z,6.38
2017-12-27T03:39:27.157Z,6.30
2017-12-27T03:41:20.158Z,6.28
2017-12-27T03:42:20.189Z,6.30
2017-12-27T03:44:13.173Z,6.35
2017-12-27T03:45:13.222Z,6.35
2017-12-27T03:47:06.467Z,6.26
2017-12-27T03:48:06.258Z,6.22
2017-12-27T03:49:59.272Z,6.26
2017-12-27T03:50:59.292Z,6.22
2017-12-27T03:52:52.363Z,6.20
2017-12-27T03:53:52.323Z,6.20
2017-12-27T03:55:45.311Z,6.20
2017-12-27T03:56:45.405Z,6.28
2017-12-27T03:58:38.365Z,6.22
2017-12-27T03:59:38.404Z,6.31
2017-12-27T04:01:31.412Z,6.16
2017-12-27T04:02:31.437Z,6.24
2017-12-27T04:04:24.416Z,6.26
2017-12-27T04:05:24.471Z,6.28
2017-12-27T04:07:17.466Z,6.30
2017-12-27T04:08:17.556Z,6.24
2017-12-27T04:10:10.539Z,6.26
2017-12-27T04:11:10.535Z,6.30
2017-12-27T04:13:03.569Z,6.22
2017-12-27T04:14:03.570Z,6.28
2017-12-27T04:15:56.602Z,6.31
2017-12-27T04:16:56.632Z,6.31
2017-12-27T04:18:49.607Z,6.39
2017-12-27T04:19:49.637Z,6.27
2017-12-27T04:21:42.636Z,6.36
2017-12-27T04:22:42.671Z,6.27
2017-12-27T04:24:35.698Z,6.33
2017-12-27T04:25:35.710Z,6.36
2017-12-27T04:27:28.709Z,6.28
2017-12-27T04:28:28.747Z,6.27
2017-12-27T04:30:21.734Z,6.26
2017-12-27T04:31:21.782Z,6.33
2017-12-27T04:33:14.776Z,6.33
2017-12-27T04:34:14.812Z,6.38
2017-12-27T04:36:07.795Z,6.31
2017-12-27T04:37:07.848Z,6.24
2017-12-27T04:39:00.846Z,6.35
2017-12-27T04:40:00.880Z,6.28
2017-12-27T04:41:53.906Z,6.38
2017-12-27T04:42:53.911Z,6.31
2017-12-27T04:44:46.973Z,6.33
2017-12-27T04:45:46.944Z,6.35
2017-12-27T04:47:39.949Z,6.39
2017-12-27T04:48:39.985Z,6.48
2017-12-27T04:50:33.092Z,6.42
2017-12-27T04:51:33.017Z,6.39
2017-12-27T04:53:26.019Z,6.46
2017-12-27T04:54:26.051Z,6.30
2017-12-27T04:56:19.055Z,6.42
2017-12-27T04:57:19.099Z,6.39
2017-12-27T04:59:12.088Z,6.46
2017-12-27T05:00:12.124Z,6.46
2017-12-27T05:02:05.128Z,6.46
2017-12-27T05:03:05.164Z,6.48
2017-12-27T05:04:58.182Z,6.46
2017-12-27T05:05:58.197Z,6.59
2017-12-27T05:07:51.198Z,6.54
2017-12-27T05:08:51.231Z,6.56
2017-12-27T05:10:44.214Z,6.59
2017-12-27T05:11:44.272Z,6.54
2017-12-27T05:13:37.318Z,6.57
2017-12-27T05:14:37.302Z,6.59
2017-12-27T05:16:30.285Z,6.69
2017-12-27T05:17:30.347Z,6.59
2017-12-27T05:19:23.340Z,6.57
2017-12-27T05:20:23.376Z,6.59
2017-12-27T05:22:16.372Z,6.60
2017-12-27T05:23:16.407Z,6.57
2017-12-27T05:25:09.385Z,6.64
2017-12-27T05:26:09.444Z,6.69
2017-12-27T05:28:02.450Z,6.60
2017-12-27T05:29:02.496Z,6.67
2017-12-27T05:30:55.467Z,6.66
2017-12-27T05:31:55.519Z,6.64
2017-12-27T05:33:48.520Z,6.66
2017-12-27T05:34:48.557Z,6.67
2017-12-27T05:36:41.550Z,6.64
2017-12-27T05:37:41.591Z,6.62
2017-12-27T05:39:34.586Z,6.67
2017-12-27T05:40:34.622Z,6.66
2017-12-27T05:42:27.931Z,6.62
2017-12-27T05:43:27.953Z,6.64
2017-12-27T05:45:20.951Z,6.62
2017-12-27T05:46:20.750Z,6.60
2017-12-27T05:48:14.012Z,6.74
2017-12-27T05:49:13.992Z,6.74
2017-12-27T05:51:06.867Z,6.74
2017-12-27T05:52:06.801Z,6.74
2017-12-27T05:53:59.858Z,6.78
2017-12-27T05:54:59.827Z,6.70
2017-12-27T05:56:52.819Z,6.81
2017-12-27T05:57:52.866Z,6.74
2017-12-27T05:59:45.925Z,6.74
2017-12-27T06:00:45.902Z,6.79
2017-12-27T06:02:39.407Z,6.79
2017-12-27T06:03:39.440Z,6.77
2017-12-27T06:05:32.526Z,6.72
2017-12-27T06:06:32.485Z,6.82
2017-12-27T06:08:25.478Z,6.79
2017-12-27T06:09:25.506Z,6.77
2017-12-27T06:11:18.564Z,6.77
2017-12-27T06:12:18.540Z,6.77
2017-12-27T06:14:11.541Z,6.82
2017-12-27T06:15:11.575Z,6.84
2017-12-27T06:17:04.556Z,6.82
2017-12-27T06:18:04.608Z,6.84
2017-12-27T06:19:57.649Z,6.89
2017-12-27T06:20:57.645Z,6.95
2017-12-27T06:22:50.648Z,6.93
2017-12-27T06:23:50.688Z,6.89
2017-12-27T06:25:43.677Z,6.95
2017-12-27T06:26:43.753Z,6.89
2017-12-27T06:28:36.909Z,6.92
2017-12-27T06:29:36.759Z,6.88
2017-12-27T06:31:29.765Z,6.87
2017-12-27T06:32:29.833Z,6.85
2017-12-27T06:34:22.993Z,6.74
2017-12-27T06:35:22.854Z,6.85
2017-12-27T06:37:15.836Z,6.70
2017-12-27T06:38:15.897Z,6.78
2017-12-27T06:40:09.025Z,6.79
2017-12-27T06:41:08.923Z,6.72
2017-12-27T06:43:01.928Z,6.72
2017-12-27T06:44:01.964Z,6.69
2017-12-27T06:45:54.977Z,6.72
2017-12-27T06:46:55.007Z,6.64
2017-12-27T06:48:48.001Z,6.78
2017-12-27T06:49:48.054Z,6.66
2017-12-27T06:51:41.146Z,6.74
2017-12-27T06:52:42.046Z,6.66
2017-12-27T06:54:34.150Z,6.72
2017-12-27T06:55:34.110Z,6.75
2017-12-27T06:57:27.086Z,6.78
2017-12-27T06:58:27.142Z,6.81
2017-12-27T07:00:20.138Z,6.66
2017-12-27T07:01:20.173Z,6.75
2017-12-27T07:03:13.735Z,6.79
2017-12-27T07:04:13.718Z,6.81
2017-12-27T07:06:06.716Z,6.74
2017-12-27T07:07:06.748Z,6.79
2017-12-27T07:08:59.887Z,6.82
2017-12-27T07:09:59.792Z,6.79
2017-12-27T07:11:52.857Z,6.81
2017-12-27T07:12:52.824Z,6.88
2017-12-27T07:14:45.825Z,6.87
2017-12-27T07:15:45.860Z,6.79
2017-12-27T07:17:38.842Z,6.75
2017-12-27T07:18:38.957Z,6.82
2017-12-27T07:20:32.011Z,6.82
2017-12-27T07:21:31.934Z,6.85
2017-12-27T07:23:25.440Z,6.81
2017-12-27T07:24:25.471Z,6.84
2017-12-27T07:26:18.576Z,6.89
2017-12-27T07:27:18.506Z,6.88
2017-12-27T07:29:11.507Z,6.85
2017-12-27T07:30:11.548Z,6.82
2017-12-27T07:32:04.577Z,6.89
2017-12-27T07:33:04.576Z,6.96
2017-12-27T07:34:57.576Z,7.00
2017-12-27T07:35:57.610Z,7.03
2017-12-27T07:37:50.623Z,7.00
2017-12-27T07:38:50.645Z,7.06
2017-12-27T07:40:43.646Z,6.99
2017-12-27T07:41:43.682Z,6.99
2017-12-27T07:43:36.679Z,6.99
2017-12-27T07:44:36.715Z,6.99
2017-12-27T07:46:29.697Z,6.93
2017-12-27T07:47:29.756Z,6.95
2017-12-27T07:49:22.852Z,6.88
2017-12-27T07:50:22.782Z,6.92
2017-12-27T07:52:15.816Z,6.85
2017-12-27T07:53:15.816Z,6.84
2017-12-27T07:55:08.936Z,6.84
2017-12-27T07:56:08.882Z,6.87
2017-12-27T07:58:01.863Z,6.81
2017-12-27T07:59:01.918Z,6.85
2017-12-27T08:00:54.912Z,6.87
2017-12-27T08:01:54.948Z,6.88
2017-12-27T08:03:47.986Z,6.85
2017-12-27T08:04:48.008Z,6.85
2017-12-27T08:06:40.958Z,6.75
2017-12-27T08:07:41.013Z,6.77
2017-12-27T08:09:34.116Z,6.78
2017-12-27T08:10:34.083Z,6.74
2017-12-27T08:12:27.030Z,6.77
2017-12-27T08:13:27.084Z,6.79
2017-12-27T08:15:20.132Z,6.75
2017-12-27T08:16:20.116Z,6.74
2017-12-27T08:18:13.169Z,6.77
2017-12-27T08:19:13.154Z,6.75
2017-12-27T08:21:06.152Z,6.77
2017-12-27T08:22:06.190Z,6.67
2017-12-27T08:23:59.187Z,6.70
2017-12-27T08:24:59.256Z,6.67
2017-12-27T08:26:52.322Z,6.66
2017-12-27T08:27:52.254Z,6.69
2017-12-27T08:29:45.366Z,6.75
2017-12-27T08:30:45.287Z,6.75
2017-12-27T08:32:38.271Z,6.77
2017-12-27T08:33:38.642Z,6.74
2017-12-27T08:35:31.322Z,6.78
2017-12-27T08:36:31.361Z,6.72
2017-12-27T08:38:24.408Z,6.72
2017-12-27T08:39:24.401Z,6.75
2017-12-27T08:41:17.391Z,6.75
2017-12-27T08:42:17.427Z,6.75
2017-12-27T08:44:10.490Z,6.67
2017-12-27T08:45:10.461Z,6.78
2017-12-27T08:47:03.446Z,6.64
2017-12-27T08:48:03.495Z,6.75
2017-12-27T08:49:56.493Z,6.77
2017-12-27T08:50:56.528Z,6.75
2017-12-27T08:52:49.602Z,6.81
2017-12-27T08:53:49.570Z,6.77
2017-12-27T08:55:42.559Z,6.77
2017-12-27T08:56:42.596Z,6.75
2017-12-27T08:58:35.579Z,6.84
2017-12-27T08:59:35.634Z,6.84
2017-12-27T09:01:28.665Z,6.85
2017-12-27T09:02:28.685Z,6.89
2017-12-27T09:04:21.674Z,6.93
2017-12-27T09:05:21.711Z,6.95
2017-12-27T09:07:15.188Z,7.05
2017-12-27T09:08:15.249Z,7.06
2017-12-27T09:10:08.261Z,6.99
2017-12-27T09:11:08.279Z,7.10
2017-12-27T09:13:01.272Z,7.15
2017-12-27T09:14:01.319Z,7.13
2017-12-27T09:15:54.415Z,7.15
2017-12-27T09:16:54.399Z,7.15
2017-12-27T09:18:47.969Z,7.15
2017-12-27T09:19:47.898Z,7.21
2017-12-27T09:21:40.929Z,7.21
2017-12-27T09:22:40.935Z,7.31
2017-12-27T09:24:33.983Z,7.20
2017-12-27T09:25:33.982Z,7.13
2017-12-27T09:27:27.020Z,7.07
2017-12-27T09:28:27.013Z,7.18
2017-12-27T09:30:20.002Z,7.20
2017-12-27T09:31:20.036Z,7.14
2017-12-27T09:33:13.621Z,7.11
2017-12-27T09:34:13.579Z,7.15
2017-12-27T09:36:07.088Z,7.14
2017-12-27T09:37:07.120Z,7.13
2017-12-27T09:39:00.155Z,7.13
2017-12-27T09:40:00.155Z,7.17
2017-12-27T09:41:53.172Z,7.13
2017-12-27T09:42:53.188Z,7.13
2017-12-27T09:44:46.277Z,7.25
2017-12-27T09:45:46.223Z,7.13
2017-12-27T09:47:39.213Z,7.17
2017-12-27T09:48:39.270Z,7.25
2017-12-27T09:50:32.389Z,7.28
2017-12-27T09:51:32.305Z,7.31
2017-12-27T09:53:25.283Z,7.24
2017-12-27T09:54:25.337Z,7.18
2017-12-27T09:56:18.336Z,7.20
2017-12-27T09:57:18.370Z,7.11
2017-12-27T09:59:11.442Z,7.15
2017-12-27T10:00:11.406Z,7.17
2017-12-27T10:02:04.428Z,7.13
2017-12-27T10:03:04.442Z,7.17
2017-12-27T10:04:57.499Z,7.07
2017-12-27T10:05:57.477Z,7.15
2017-12-27T10:07:50.554Z,7.28
2017-12-27T10:08:50.515Z,7.17
2017-12-27T10:10:43.510Z,7.17
2017-12-27T10:11:43.547Z,7.24
2017-12-27T10:13:37.182Z,7.14
2017-12-27T10:14:37.087Z,7.10
2017-12-27T10:16:30.285Z,7.10
2017-12-27T10:17:30.127Z,7.21
2017-12-27T10:19:23.103Z,7.13
2017-12-27T10:20:23.159Z,7.24
2017-12-27T10:22:16.342Z,7.32
2017-12-27T10:23:16.194Z,7.32
2017-12-27T10:25:09.381Z,7.32
2017-12-27T10:26:09.230Z,7.31
2017-12-27T10:28:02.312Z,7.28
2017-12-27T10:29:02.330Z,7.31
2017-12-27T10:30:55.300Z,7.31
2017-12-27T10:31:55.320Z,7.32
2017-12-27T10:33:48.359Z,7.28
2017-12-27T10:34:48.347Z,7.28
2017-12-27T10:36:41.533Z,7.33
2017-12-27T10:37:41.381Z,7.25
2017-12-27T10:39:34.357Z,7.32
2017-12-27T10:40:34.414Z,7.32
2017-12-27T10:42:27.922Z,7.25
2017-12-27T10:43:27.955Z,7.25
2017-12-27T10:45:21.474Z,7.11
2017-12-27T10:46:21.605Z,7.15
2017-12-27T10:48:14.984Z,7.11
2017-12-27T10:49:15.040Z,7.14
2017-12-27T10:51:08.043Z,7.11
2017-12-27T10:52:08.077Z,7.14
2017-12-27T10:54:01.157Z,7.15
2017-12-27T10:55:01.119Z,7.14
2017-12-27T10:56:54.121Z,7.15
2017-12-27T10:57:54.147Z,7.18
2017-12-27T10:59:47.126Z,7.25
2017-12-27T11:00:47.184Z,7.15
2017-12-27T11:02:40.213Z,7.15
2017-12-27T11:03:40.216Z,7.15
2017-12-27T11:05:33.212Z,7.15
2017-12-27T11:06:33.277Z,7.21
2017-12-27T11:08:26.603Z,7.24
2017-12-27T11:09:26.397Z,7.28
2017-12-27T11:11:19.400Z,7.23
2017-12-27T11:12:19.422Z,7.11
2017-12-27T11:14:12.437Z,7.32
2017-12-27T11:15:12.456Z,7.24
2017-12-27T11:17:05.484Z,7.33
2017-12-27T11:18:05.488Z,7.31
2017-12-27T11:19:58.469Z,7.32
2017-12-27T11:20:58.534Z,7.29
2017-12-27T11:22:51.516Z,7.32
2017-12-27T11:23:51.555Z,7.31
2017-12-27T11:25:44.607Z,7.29
2017-12-27T11:26:44.588Z,7.31
2017-12-27T11:28:37.566Z,7.31
2017-12-27T11:29:37.623Z,7.28
2017-12-27T11:31:30.619Z,7.28
2017-12-27T11:32:30.659Z,7.31
2017-12-27T11:34:23.644Z,7.23
2017-12-27T11:35:23.695Z,7.31
2017-12-27T11:37:16.691Z,7.28
2017-12-27T11:38:16.725Z,7.31
2017-12-27T11:40:09.731Z,7.31
2017-12-27T11:41:09.759Z,7.28
2017-12-27T11:43:02.796Z,7.25
2017-12-27T11:44:02.796Z,7.33
2017-12-27T11:45:55.791Z,7.29
2017-12-27T11:46:55.827Z,7.39
2017-12-27T11:48:48.814Z,7.32
2017-12-27T11:49:48.868Z,7.33
2017-12-27T11:51:41.868Z,7.33
2017-12-27T11:52:41.902Z,7.28
2017-12-27T11:54:34.882Z,7.23
2017-12-27T11:55:34.934Z,7.11
2017-12-27T11:57:27.989Z,7.24
2017-12-27T11:58:27.969Z,7.25
2017-12-27T12:00:20.967Z,7.28
2017-12-27T12:01:21.045Z,7.28
2017-12-27T12:03:14.052Z,7.31
2017-12-27T12:04:14.043Z,7.29
2017-12-27T12:06:07.044Z,7.31
2017-12-27T12:07:07.078Z,7.42
2017-12-27T12:09:00.569Z,7.38
2017-12-27T12:10:00.619Z,7.43
2017-12-27T12:11:53.652Z,7.40
2017-12-27T12:12:53.655Z,7.39
2017-12-27T12:14:46.639Z,7.45
2017-12-27T12:15:46.702Z,7.45
2017-12-27T12:17:39.694Z,7.38
2017-12-27T12:18:39.749Z,7.39
2017-12-27T12:20:32.720Z,7.42
2017-12-27T12:21:32.759Z,7.42
2017-12-27T12:23:25.795Z,7.42
2017-12-27T12:24:25.791Z,7.47
2017-12-27T12:26:19.340Z,7.38
2017-12-27T12:27:19.332Z,7.42
2017-12-27T12:29:12.821Z,7.42
2017-12-27T12:30:12.875Z,7.48
2017-12-27T12:32:05.872Z,7.51
2017-12-27T12:33:05.909Z,7.47
2017-12-27T12:34:58.897Z,7.47
2017-12-27T12:35:58.943Z,7.40
2017-12-27T12:37:51.948Z,7.45
2017-12-27T12:38:51.987Z,7.47
2017-12-27T12:40:44.973Z,7.51
2017-12-27T12:41:45.020Z,7.48
2017-12-27T12:43:38.097Z,7.63
2017-12-27T12:44:38.056Z,7.63
2017-12-27T12:46:31.054Z,7.57
2017-12-27T12:47:31.091Z,7.70
2017-12-27T12:49:24.144Z,7.67
2017-12-27T12:50:24.126Z,7.60
2017-12-27T12:52:17.128Z,7.63
2017-12-27T12:53:17.197Z,7.54
2017-12-27T12:55:10.157Z,7.47
2017-12-27T12:56:10.204Z,7.42
2017-12-27T12:58:03.206Z,7.40
2017-12-27T12:59:03.379Z,7.40
2017-12-27T13:00:56.267Z,7.50
2017-12-27T13:01:56.270Z,7.51
2017-12-27T13:03:49.299Z,7.54
2017-12-27T13:04:49.309Z,7.58
2017-12-27T13:06:43.066Z,7.66
2017-12-27T13:07:42.849Z,7.58
2017-12-27T13:09:35.837Z,7.66
2017-12-27T13:10:35.970Z,7.73
2017-12-27T13:12:29.001Z,7.70
2017-12-27T13:13:28.919Z,7.67
2017-12-27T13:15:21.977Z,7.70
2017-12-27T13:16:21.954Z,7.67
2017-12-27T13:18:14.958Z,7.63
2017-12-27T13:19:14.989Z,7.66
2017-12-27T13:21:07.973Z,7.58
2017-12-27T13:22:08.029Z,7.66
2017-12-27T13:24:01.087Z,7.67
2017-12-27T13:25:01.066Z,7.69
2017-12-27T13:26:54.066Z,7.72
2017-12-27T13:27:54.102Z,7.70
2017-12-27T13:29:47.186Z,7.66
2017-12-27T13:30:47.137Z,7.73
2017-12-27T13:32:40.223Z,7.76
2017-12-27T13:33:40.173Z,7.77
2017-12-27T13:35:33.157Z,7.75
2017-12-27T13:36:33.209Z,7.70
2017-12-27T13:38:26.328Z,7.70
2017-12-27T13:39:26.245Z,7.70
2017-12-27T13:41:19.226Z,7.75
2017-12-27T13:42:19.281Z,7.76
2017-12-27T13:44:12.835Z,7.61
2017-12-27T13:45:12.822Z,7.72
2017-12-27T13:47:05.823Z,7.72
2017-12-27T13:48:05.860Z,7.70
2017-12-27T13:49:58.861Z,7.66
2017-12-27T13:50:58.897Z,7.69
2017-12-27T13:52:51.896Z,7.72
2017-12-27T13:53:51.931Z,7.66
2017-12-27T13:55:44.915Z,7.63
2017-12-27T13:56:44.969Z,7.69
2017-12-27T13:58:37.986Z,7.85
2017-12-27T13:59:38.006Z,7.80
2017-12-27T14:01:31.542Z,7.87
2017-12-27T14:02:31.553Z,7.87
2017-12-27T14:04:24.564Z,7.87
2017-12-27T14:05:24.588Z,7.90
2017-12-27T14:07:17.585Z,8.06
2017-12-27T14:08:17.619Z,7.94
2017-12-27T14:10:10.605Z,7.97
2017-12-27T14:11:10.658Z,7.94
2017-12-27T14:13:04.206Z,7.91
2017-12-27T14:14:04.201Z,7.90
2017-12-27T14:15:57.178Z,7.95
2017-12-27T14:16:57.240Z,7.95
2017-12-27T14:18:50.235Z,7.93
2017-12-27T14:19:50.270Z,7.91
2017-12-27T14:21:43.255Z,7.87
2017-12-27T14:22:43.309Z,7.88
2017-12-27T14:24:36.310Z,7.82
2017-12-27T14:25:36.346Z,7.85
2017-12-27T14:27:29.362Z,7.94
2017-12-27T14:28:29.383Z,7.95
2017-12-27T14:30:22.385Z,7.90
2017-12-27T14:31:22.420Z,7.79
2017-12-27T14:33:15.417Z,7.98
2017-12-27T14:34:15.455Z,7.97
2017-12-27T14:36:08.438Z,7.97
2017-12-27T14:37:08.495Z,7.83
2017-12-27T14:39:01.599Z,7.88
2017-12-27T14:40:01.527Z,7.93
2017-12-27T14:41:55.088Z,7.83
2017-12-27T14:42:55.068Z,7.95
2017-12-27T14:44:48.220Z,7.90
2017-12-27T14:45:48.128Z,7.95
2017-12-27T14:47:41.104Z,7.85
2017-12-27T14:48:41.152Z,7.83
2017-12-27T14:50:35.630Z,7.88
2017-12-27T14:51:35.685Z,7.87
2017-12-27T14:53:28.693Z,7.83
2017-12-27T14:54:28.729Z,7.93
2017-12-27T14:56:23.220Z,7.80
2017-12-27T14:57:23.291Z,7.80
2017-12-27T14:59:16.309Z,7.82
2017-12-27T15:00:16.308Z,7.88
2017-12-27T15:02:09.291Z,7.83
2017-12-27T15:03:09.348Z,7.77
2017-12-27T15:05:02.351Z,7.82
2017-12-27T15:06:02.394Z,7.69
2017-12-27T15:07:55.417Z,7.75
2017-12-27T15:08:55.449Z,7.72
2017-12-27T15:10:48.398Z,7.70
2017-12-27T15:11:48.460Z,7.66
2017-12-27T15:13:41.515Z,7.72
2017-12-27T15:14:41.567Z,7.66
2017-12-27T15:16:34.486Z,7.72
2017-12-27T15:17:34.544Z,7.67
2017-12-27T15:19:27.551Z,7.70
2017-12-27T15:20:27.599Z,7.73
2017-12-27T15:22:20.570Z,7.66
2017-12-27T15:23:20.624Z,7.75
2017-12-27T15:25:13.651Z,7.70
2017-12-27T15:26:13.675Z,7.77
2017-12-27T15:28:06.834Z,7.76
2017-12-27T15:29:06.836Z,7.75
2017-12-27T15:30:59.975Z,7.66
2017-12-27T15:31:59.744Z,7.70
2017-12-27T15:33:52.778Z,7.73
2017-12-27T15:34:52.797Z,7.66
2017-12-27T15:36:45.937Z,7.61
2017-12-27T15:37:45.864Z,7.61
2017-12-27T15:39:39.058Z,7.72
2017-12-27T15:40:38.882Z,7.63
2017-12-27T15:42:31.854Z,7.72
2017-12-27T15:43:31.933Z,7.70
2017-12-27T15:45:25.172Z,7.69
2017-12-27T15:46:24.944Z,7.66
2017-12-27T15:48:18.630Z,7.66
2017-12-27T15:49:18.559Z,7.66
2017-12-27T15:51:11.668Z,7.70
2017-12-27T15:52:11.589Z,7.69
2017-12-27T15:54:05.069Z,7.61
2017-12-27T15:55:05.109Z,7.72
2017-12-27T15:56:58.222Z,7.63
2017-12-27T15:57:58.126Z,7.66
2017-12-27T15:59:51.109Z,7.66
2017-12-27T16:00:51.145Z,7.63
2017-12-27T16:02:44.664Z,7.67
2017-12-27T16:03:44.686Z,7.63
2017-12-27T16:05:37.686Z,7.63
2017-12-27T16:06:37.746Z,7.63
2017-12-27T16:08:30.863Z,7.63
2017-12-27T16:09:30.905Z,7.67
2017-12-27T16:11:23.766Z,7.60
2017-12-27T16:12:23.896Z,7.69
2017-12-27T16:14:16.903Z,7.56
2017-12-27T16:15:16.859Z,7.56
2017-12-27T16:17:09.843Z,7.53
2017-12-27T16:18:09.903Z,7.56
2017-12-27T16:20:02.904Z,7.51
2017-12-27T16:21:02.942Z,7.53
2017-12-27T16:22:55.926Z,7.51
2017-12-27T16:23:55.977Z,7.50
2017-12-27T16:25:48.978Z,7.51
2017-12-27T16:26:49.014Z,7.50
2017-12-27T16:28:42.028Z,7.53
2017-12-27T16:29:42.049Z,7.43
2017-12-27T16:31:35.101Z,7.54
2017-12-27T16:32:35.130Z,7.43
2017-12-27T16:34:29.583Z,7.50
2017-12-27T16:35:29.615Z,7.39
2017-12-27T16:37:22.640Z,7.42
2017-12-27T16:38:22.684Z,7.40
2017-12-27T16:40:15.678Z,7.45
2017-12-27T16:41:15.711Z,7.42
2017-12-27T16:43:08.695Z,7.47
2017-12-27T16:44:08.745Z,7.39
2017-12-27T16:46:01.748Z,7.40
2017-12-27T16:47:01.785Z,7.32
2017-12-27T16:48:54.790Z,7.32
2017-12-27T16:49:54.820Z,7.28
2017-12-27T16:51:47.848Z,7.25
2017-12-27T16:52:47.853Z,7.21
2017-12-27T16:54:40.855Z,7.25
2017-12-27T16:55:40.888Z,7.15
2017-12-27T16:57:33.872Z,7.11
2017-12-27T16:58:33.949Z,7.20
2017-12-27T17:00:26.925Z,7.28
2017-12-27T17:01:26.964Z,7.15
2017-12-27T17:03:19.988Z,7.15
2017-12-27T17:04:20.001Z,7.14
2017-12-27T17:06:13.009Z,7.13
2017-12-27T17:07:13.035Z,7.00
2017-12-27T17:09:06.033Z,7.00
2017-12-27T17:10:06.069Z,7.00
2017-12-27T17:11:59.053Z,6.96
2017-12-27T17:12:59.105Z,6.95
2017-12-27T17:14:52.103Z,6.96
2017-12-27T17:15:52.141Z,6.84
2017-12-27T17:17:45.123Z,6.89
2017-12-27T17:18:45.179Z,6.77
2017-12-27T17:20:38.209Z,6.81
2017-12-27T17:21:38.211Z,6.67
2017-12-27T17:23:31.202Z,6.54
2017-12-27T17:24:31.261Z,6.59
2017-12-27T17:26:24.257Z,6.57
2017-12-27T17:27:24.294Z,6.45
2017-12-27T17:29:17.300Z,6.45
2017-12-27T17:30:17.336Z,6.39
2017-12-27T17:32:10.337Z,6.44
2017-12-27T17:33:10.379Z,6.35
2017-12-27T17:35:04.016Z,6.42
2017-12-27T17:36:03.921Z,6.48
2017-12-27T17:37:56.980Z,6.54
2017-12-27T17:38:56.957Z,6.49
2017-12-27T17:40:49.976Z,6.66
2017-12-27T17:41:49.990Z,6.64
2017-12-27T17:43:43.581Z,6.70
2017-12-27T17:44:43.560Z,6.66
2017-12-27T17:46:36.642Z,6.75
2017-12-27T17:47:36.578Z,6.72
2017-12-27T17:49:29.630Z,6.77
2017-12-27T17:50:29.675Z,6.75
2017-12-27T17:52:22.596Z,6.77
2017-12-27T17:53:22.656Z,6.74
2017-12-27T17:55:15.818Z,6.79
2017-12-27T17:56:15.695Z,6.79
2017-12-27T17:58:08.739Z,6.82
2017-12-27T17:59:08.730Z,6.79
2017-12-27T18:01:01.789Z,6.85
2017-12-27T18:02:01.766Z,6.84
2017-12-27T18:03:54.814Z,6.77
2017-12-27T18:04:54.818Z,6.82
2017-12-27T18:06:47.912Z,6.78
2017-12-27T18:07:47.859Z,6.79
2017-12-27T18:09:40.988Z,6.84
2017-12-27T18:10:40.916Z,6.85
2017-12-27T18:12:34.196Z,6.85
2017-12-27T18:13:33.949Z,6.84
2017-12-27T18:15:26.952Z,6.84
2017-12-27T18:16:26.990Z,6.84
2017-12-27T18:18:19.973Z,6.82
2017-12-27T18:19:20.058Z,6.77
2017-12-27T18:21:13.234Z,6.85
2017-12-27T18:22:13.065Z,6.87
2017-12-27T18:24:06.175Z,6.88
2017-12-27T18:25:06.109Z,6.82
2017-12-27T18:26:59.217Z,6.79
2017-12-27T18:27:59.136Z,6.82
2017-12-27T18:29:52.160Z,6.75
2017-12-27T18:30:52.198Z,6.74
2017-12-27T18:32:45.188Z,6.74
2017-12-27T18:33:45.208Z,6.74
2017-12-27T18:35:38.720Z,6.70
2017-12-27T18:36:38.749Z,6.75
2017-12-27T18:38:31.763Z,6.75
2017-12-27T18:39:31.790Z,6.66
2017-12-27T18:41:24.795Z,6.78
2017-12-27T18:42:24.824Z,6.70
2017-12-27T18:44:17.816Z,6.78
2017-12-27T18:45:17.877Z,6.75
2017-12-27T18:47:10.905Z,6.78
2017-12-27T18:48:10.908Z,6.70
2017-12-27T18:50:03.935Z,6.70
2017-12-27T18:51:03.944Z,6.78
2017-12-27T18:52:56.931Z,6.69
2017-12-27T18:53:57.002Z,6.77
2017-12-27T18:55:50.653Z,6.78
2017-12-27T18:56:50.528Z,6.75
2017-12-27T18:58:43.570Z,6.70
2017-12-27T18:59:43.562Z,6.77
2017-12-27T19:01:36.727Z,6.74
2017-12-27T19:02:36.601Z,6.79
2017-12-27T19:04:29.697Z,6.77
2017-12-27T19:05:29.649Z,6.74
2017-12-27T19:07:22.748Z,6.77
2017-12-27T19:08:22.679Z,6.67
2017-12-27T19:10:15.679Z,6.81
2017-12-27T19:11:15.712Z,6.74